sensor_id;sensor_type;location;lat;lon;timestamp;P1;durP1;ratioP1;P2;durP2;ratioP2
27796;SDS011;15177;50.844;4.412;2023-04-06T00:01:37;22.40;;;11.50;;
27796;SDS011;15177;50.844;4.412;2023-04-06T00:04:03;20.57;;;11.60;;
27796;SDS011;15177;50.844;4.412;2023-04-06T00:06:29;22.63;;;11.20;;
27796;SDS011;15177;50.844;4.412;2023-04-06T00:08:55;26.47;;;11.73;;
27796;SDS011;15177;50.844;4.412;2023-04-06T00:11:21;26.23;;;11.80;;
27796;SDS011;15177;50.844;4.412;2023-04-06T00:13:47;21.07;;;11.50;;
27796;SDS011;15177;50.844;4.412;2023-04-06T00:16:12;20.70;;;10.87;;
27796;SDS011;15177;50.844;4.412;2023-04-06T00:18:38;24.17;;;12.07;;
27796;SDS011;15177;50.844;4.412;2023-04-06T00:21:04;25.83;;;12.47;;
27796;SDS011;15177;50.844;4.412;2023-04-06T00:23:30;22.17;;;10.43;;
27796;SDS011;15177;50.844;4.412;2023-04-06T00:25:55;20.63;;;11.57;;
27796;SDS011;15177;50.844;4.412;2023-04-06T00:28:21;23.53;;;11.57;;
27796;SDS011;15177;50.844;4.412;2023-04-06T00:30:50;22.63;;;11.60;;
27796;SDS011;15177;50.844;4.412;2023-04-06T00:33:20;25.33;;;12.40;;
27796;SDS011;15177;50.844;4.412;2023-04-06T00:35:46;21.57;;;11.10;;
27796;SDS011;15177;50.844;4.412;2023-04-06T00:38:12;22.70;;;11.47;;
27796;SDS011;15177;50.844;4.412;2023-04-06T00:40:38;24.63;;;11.93;;
27796;SDS011;15177;50.844;4.412;2023-04-06T00:43:05;20.53;;;11.00;;
27796;SDS011;15177;50.844;4.412;2023-04-06T00:45:31;24.50;;;11.47;;
27796;SDS011;15177;50.844;4.412;2023-04-06T00:47:57;20.40;;;11.60;;
27796;SDS011;15177;50.844;4.412;2023-04-06T00:50:23;24.37;;;11.50;;
27796;SDS011;15177;50.844;4.412;2023-04-06T00:52:49;24.50;;;11.20;;
27796;SDS011;15177;50.844;4.412;2023-04-06T00:55:15;22.83;;;11.30;;
27796;SDS011;15177;50.844;4.412;2023-04-06T00:57:42;22.03;;;11.33;;
27796;SDS011;15177;50.844;4.412;2023-04-06T01:00:08;24.17;;;11.30;;
27796;SDS011;15177;50.844;4.412;2023-04-06T01:02:34;21.67;;;10.20;;
27796;SDS011;15177;50.844;4.412;2023-04-06T01:05:01;25.03;;;11.67;;
27796;SDS011;15177;50.844;4.412;2023-04-06T01:07:27;20.43;;;11.07;;
27796;SDS011;15177;50.844;4.412;2023-04-06T01:09:53;22.97;;;11.43;;
27796;SDS011;15177;50.844;4.412;2023-04-06T01:12:19;22.37;;;11.43;;
27796;SDS011;15177;50.844;4.412;2023-04-06T01:14:45;23.87;;;11.83;;
27796;SDS011;15177;50.844;4.412;2023-04-06T01:17:11;27.00;;;11.90;;
27796;SDS011;15177;50.844;4.412;2023-04-06T01:19:37;21.47;;;11.00;;
27796;SDS011;15177;50.844;4.412;2023-04-06T01:22:02;22.37;;;11.70;;
27796;SDS011;15177;50.844;4.412;2023-04-06T01:24:28;22.43;;;11.40;;
27796;SDS011;15177;50.844;4.412;2023-04-06T01:26:53;23.00;;;11.43;;
27796;SDS011;15177;50.844;4.412;2023-04-06T01:29:19;24.00;;;12.00;;
27796;SDS011;15177;50.844;4.412;2023-04-06T01:31:45;25.53;;;11.80;;
27796;SDS011;15177;50.844;4.412;2023-04-06T01:34:10;21.10;;;11.40;;
27796;SDS011;15177;50.844;4.412;2023-04-06T01:36:36;19.97;;;10.80;;
27796;SDS011;15177;50.844;4.412;2023-04-06T01:39:02;27.83;;;12.20;;
27796;SDS011;15177;50.844;4.412;2023-04-06T01:41:28;21.30;;;11.20;;
27796;SDS011;15177;50.844;4.412;2023-04-06T01:43:53;23.53;;;11.20;;
27796;SDS011;15177;50.844;4.412;2023-04-06T01:46:20;22.73;;;11.87;;
27796;SDS011;15177;50.844;4.412;2023-04-06T01:48:46;21.83;;;12.23;;
27796;SDS011;15177;50.844;4.412;2023-04-06T01:51:12;23.60;;;11.70;;
27796;SDS011;15177;50.844;4.412;2023-04-06T01:53:37;23.20;;;11.67;;
27796;SDS011;15177;50.844;4.412;2023-04-06T01:56:03;24.77;;;12.40;;
27796;SDS011;15177;50.844;4.412;2023-04-06T01:58:29;20.87;;;11.57;;
27796;SDS011;15177;50.844;4.412;2023-04-06T02:00:55;25.13;;;12.47;;
27796;SDS011;15177;50.844;4.412;2023-04-06T02:03:20;23.63;;;12.17;;
27796;SDS011;15177;50.844;4.412;2023-04-06T02:05:46;18.80;;;11.47;;
27796;SDS011;15177;50.844;4.412;2023-04-06T02:08:12;27.37;;;13.67;;
27796;SDS011;15177;50.844;4.412;2023-04-06T02:10:37;23.90;;;12.37;;
27796;SDS011;15177;50.844;4.412;2023-04-06T02:13:03;25.10;;;12.67;;
27796;SDS011;15177;50.844;4.412;2023-04-06T02:15:29;21.10;;;11.13;;
27796;SDS011;15177;50.844;4.412;2023-04-06T02:17:55;19.87;;;11.60;;
27796;SDS011;15177;50.844;4.412;2023-04-06T02:20:20;24.33;;;11.47;;
27796;SDS011;15177;50.844;4.412;2023-04-06T02:22:46;27.63;;;12.53;;
27796;SDS011;15177;50.844;4.412;2023-04-06T02:25:11;25.53;;;12.43;;
27796;SDS011;15177;50.844;4.412;2023-04-06T02:27:37;23.93;;;12.73;;
27796;SDS011;15177;50.844;4.412;2023-04-06T02:30:03;20.33;;;12.53;;
27796;SDS011;15177;50.844;4.412;2023-04-06T02:32:29;21.83;;;11.43;;
27796;SDS011;15177;50.844;4.412;2023-04-06T02:34:55;24.20;;;12.63;;
27796;SDS011;15177;50.844;4.412;2023-04-06T02:37:21;21.63;;;11.73;;
27796;SDS011;15177;50.844;4.412;2023-04-06T02:39:48;23.83;;;12.00;;
27796;SDS011;15177;50.844;4.412;2023-04-06T02:42:15;24.90;;;12.77;;
27796;SDS011;15177;50.844;4.412;2023-04-06T02:44:41;25.77;;;12.37;;
27796;SDS011;15177;50.844;4.412;2023-04-06T02:47:07;27.00;;;12.97;;
27796;SDS011;15177;50.844;4.412;2023-04-06T02:49:33;22.20;;;12.50;;
27796;SDS011;15177;50.844;4.412;2023-04-06T02:51:59;24.10;;;12.17;;
27796;SDS011;15177;50.844;4.412;2023-04-06T02:54:25;20.90;;;12.00;;
27796;SDS011;15177;50.844;4.412;2023-04-06T02:56:50;28.20;;;12.70;;
27796;SDS011;15177;50.844;4.412;2023-04-06T02:59:16;22.43;;;12.43;;
27796;SDS011;15177;50.844;4.412;2023-04-06T03:01:41;22.83;;;12.90;;
27796;SDS011;15177;50.844;4.412;2023-04-06T03:04:07;31.90;;;12.53;;
27796;SDS011;15177;50.844;4.412;2023-04-06T03:06:33;23.30;;;12.60;;
27796;SDS011;15177;50.844;4.412;2023-04-06T03:08:58;24.10;;;12.87;;
27796;SDS011;15177;50.844;4.412;2023-04-06T03:11:24;25.57;;;12.57;;
27796;SDS011;15177;50.844;4.412;2023-04-06T03:13:51;24.43;;;13.13;;
27796;SDS011;15177;50.844;4.412;2023-04-06T03:16:17;21.80;;;12.57;;
27796;SDS011;15177;50.844;4.412;2023-04-06T03:18:42;23.47;;;12.53;;
27796;SDS011;15177;50.844;4.412;2023-04-06T03:21:10;22.63;;;12.83;;
27796;SDS011;15177;50.844;4.412;2023-04-06T03:23:35;25.97;;;12.37;;
27796;SDS011;15177;50.844;4.412;2023-04-06T03:26:01;24.23;;;12.83;;
27796;SDS011;15177;50.844;4.412;2023-04-06T03:28:27;24.37;;;12.73;;
27796;SDS011;15177;50.844;4.412;2023-04-06T03:30:53;23.40;;;12.27;;
27796;SDS011;15177;50.844;4.412;2023-04-06T03:33:19;21.33;;;12.77;;
27796;SDS011;15177;50.844;4.412;2023-04-06T03:35:44;21.07;;;12.13;;
27796;SDS011;15177;50.844;4.412;2023-04-06T03:38:10;21.87;;;13.03;;
27796;SDS011;15177;50.844;4.412;2023-04-06T03:40:36;26.43;;;13.40;;
27796;SDS011;15177;50.844;4.412;2023-04-06T03:43:01;25.23;;;12.50;;
27796;SDS011;15177;50.844;4.412;2023-04-06T03:45:27;24.80;;;12.87;;
27796;SDS011;15177;50.844;4.412;2023-04-06T03:47:53;24.37;;;12.80;;
27796;SDS011;15177;50.844;4.412;2023-04-06T03:50:18;21.40;;;12.23;;
27796;SDS011;15177;50.844;4.412;2023-04-06T03:52:44;23.73;;;12.53;;
27796;SDS011;15177;50.844;4.412;2023-04-06T03:55:10;22.23;;;12.27;;
27796;SDS011;15177;50.844;4.412;2023-04-06T03:57:35;23.73;;;13.57;;
27796;SDS011;15177;50.844;4.412;2023-04-06T04:00:02;27.10;;;13.77;;
27796;SDS011;15177;50.844;4.412;2023-04-06T04:02:28;25.37;;;13.37;;
27796;SDS011;15177;50.844;4.412;2023-04-06T04:04:54;24.73;;;12.87;;
27796;SDS011;15177;50.844;4.412;2023-04-06T04:07:20;23.57;;;13.07;;
27796;SDS011;15177;50.844;4.412;2023-04-06T04:09:45;23.70;;;12.57;;
27796;SDS011;15177;50.844;4.412;2023-04-06T04:12:11;24.30;;;11.73;;
27796;SDS011;15177;50.844;4.412;2023-04-06T04:14:37;22.57;;;13.63;;
27796;SDS011;15177;50.844;4.412;2023-04-06T04:17:02;24.87;;;12.57;;
27796;SDS011;15177;50.844;4.412;2023-04-06T04:19:28;24.73;;;14.53;;
27796;SDS011;15177;50.844;4.412;2023-04-06T04:21:54;25.47;;;13.40;;
27796;SDS011;15177;50.844;4.412;2023-04-06T04:24:19;26.17;;;13.87;;
27796;SDS011;15177;50.844;4.412;2023-04-06T04:26:45;22.80;;;13.37;;
27796;SDS011;15177;50.844;4.412;2023-04-06T04:29:11;22.93;;;14.07;;
27796;SDS011;15177;50.844;4.412;2023-04-06T04:31:36;26.40;;;13.03;;
27796;SDS011;15177;50.844;4.412;2023-04-06T04:34:02;26.53;;;13.33;;
27796;SDS011;15177;50.844;4.412;2023-04-06T04:36:29;27.27;;;13.87;;
27796;SDS011;15177;50.844;4.412;2023-04-06T04:38:55;27.23;;;13.10;;
27796;SDS011;15177;50.844;4.412;2023-04-06T04:41:20;30.77;;;15.00;;
27796;SDS011;15177;50.844;4.412;2023-04-06T04:43:46;27.73;;;14.43;;
27796;SDS011;15177;50.844;4.412;2023-04-06T04:46:12;25.20;;;13.70;;
27796;SDS011;15177;50.844;4.412;2023-04-06T04:48:37;24.17;;;14.23;;
27796;SDS011;15177;50.844;4.412;2023-04-06T04:51:04;23.83;;;13.33;;
27796;SDS011;15177;50.844;4.412;2023-04-06T04:53:30;24.33;;;14.20;;
27796;SDS011;15177;50.844;4.412;2023-04-06T04:55:56;25.07;;;13.53;;
27796;SDS011;15177;50.844;4.412;2023-04-06T04:58:21;25.97;;;13.97;;
27796;SDS011;15177;50.844;4.412;2023-04-06T05:00:47;29.53;;;14.87;;
27796;SDS011;15177;50.844;4.412;2023-04-06T05:03:14;25.50;;;14.93;;
27796;SDS011;15177;50.844;4.412;2023-04-06T05:05:49;31.80;;;15.60;;
27796;SDS011;15177;50.844;4.412;2023-04-06T05:08:15;30.60;;;15.10;;
27796;SDS011;15177;50.844;4.412;2023-04-06T05:10:41;29.00;;;14.47;;
27796;SDS011;15177;50.844;4.412;2023-04-06T05:13:07;24.13;;;14.33;;
27796;SDS011;15177;50.844;4.412;2023-04-06T05:15:33;29.63;;;15.47;;
27796;SDS011;15177;50.844;4.412;2023-04-06T05:18:06;25.00;;;13.97;;
27796;SDS011;15177;50.844;4.412;2023-04-06T05:20:33;26.97;;;14.80;;
27796;SDS011;15177;50.844;4.412;2023-04-06T05:22:59;24.47;;;13.93;;
27796;SDS011;15177;50.844;4.412;2023-04-06T05:25:25;29.03;;;14.83;;
27796;SDS011;15177;50.844;4.412;2023-04-06T05:27:51;30.40;;;15.77;;
27796;SDS011;15177;50.844;4.412;2023-04-06T05:30:17;30.03;;;15.17;;
27796;SDS011;15177;50.844;4.412;2023-04-06T05:32:43;27.93;;;15.13;;
27796;SDS011;15177;50.844;4.412;2023-04-06T05:35:09;36.60;;;15.13;;
27796;SDS011;15177;50.844;4.412;2023-04-06T05:37:35;29.80;;;15.23;;
27796;SDS011;15177;50.844;4.412;2023-04-06T05:40:01;29.77;;;15.03;;
27796;SDS011;15177;50.844;4.412;2023-04-06T05:42:27;32.57;;;14.97;;
27796;SDS011;15177;50.844;4.412;2023-04-06T05:44:53;26.70;;;14.87;;
27796;SDS011;15177;50.844;4.412;2023-04-06T05:47:20;28.33;;;15.17;;
27796;SDS011;15177;50.844;4.412;2023-04-06T05:49:47;28.00;;;14.57;;
27796;SDS011;15177;50.844;4.412;2023-04-06T05:52:12;26.37;;;15.00;;
27796;SDS011;15177;50.844;4.412;2023-04-06T05:54:38;27.90;;;15.63;;
27796;SDS011;15177;50.844;4.412;2023-04-06T05:57:04;27.50;;;15.07;;
27796;SDS011;15177;50.844;4.412;2023-04-06T05:59:30;30.07;;;16.60;;
27796;SDS011;15177;50.844;4.412;2023-04-06T06:01:56;28.93;;;15.23;;
27796;SDS011;15177;50.844;4.412;2023-04-06T06:04:22;31.23;;;15.67;;
27796;SDS011;15177;50.844;4.412;2023-04-06T06:06:48;29.37;;;16.83;;
27796;SDS011;15177;50.844;4.412;2023-04-06T06:09:13;34.00;;;15.50;;
27796;SDS011;15177;50.844;4.412;2023-04-06T06:11:39;28.10;;;15.17;;
27796;SDS011;15177;50.844;4.412;2023-04-06T06:14:05;31.23;;;16.13;;
27796;SDS011;15177;50.844;4.412;2023-04-06T06:16:31;34.00;;;15.70;;
27796;SDS011;15177;50.844;4.412;2023-04-06T06:18:57;29.67;;;14.97;;
27796;SDS011;15177;50.844;4.412;2023-04-06T06:21:23;37.13;;;15.80;;
27796;SDS011;15177;50.844;4.412;2023-04-06T06:23:48;37.97;;;16.73;;
27796;SDS011;15177;50.844;4.412;2023-04-06T06:26:15;30.10;;;14.87;;
27796;SDS011;15177;50.844;4.412;2023-04-06T06:28:41;38.20;;;15.47;;
27796;SDS011;15177;50.844;4.412;2023-04-06T06:31:07;32.43;;;15.10;;
27796;SDS011;15177;50.844;4.412;2023-04-06T06:33:32;32.07;;;15.00;;
27796;SDS011;15177;50.844;4.412;2023-04-06T06:35:58;32.90;;;14.90;;
27796;SDS011;15177;50.844;4.412;2023-04-06T06:38:24;27.83;;;15.23;;
27796;SDS011;15177;50.844;4.412;2023-04-06T06:40:50;33.13;;;15.73;;
27796;SDS011;15177;50.844;4.412;2023-04-06T06:43:15;31.90;;;15.20;;
27796;SDS011;15177;50.844;4.412;2023-04-06T06:45:42;31.23;;;16.20;;
27796;SDS011;15177;50.844;4.412;2023-04-06T06:48:09;34.40;;;15.90;;
27796;SDS011;15177;50.844;4.412;2023-04-06T06:50:35;25.93;;;14.03;;
27796;SDS011;15177;50.844;4.412;2023-04-06T06:53:01;31.83;;;15.30;;
27796;SDS011;15177;50.844;4.412;2023-04-06T06:55:27;35.00;;;15.93;;
27796;SDS011;15177;50.844;4.412;2023-04-06T06:57:53;32.27;;;15.07;;
27796;SDS011;15177;50.844;4.412;2023-04-06T07:00:18;28.80;;;15.57;;
27796;SDS011;15177;50.844;4.412;2023-04-06T07:02:46;30.60;;;15.97;;
27796;SDS011;15177;50.844;4.412;2023-04-06T07:05:12;31.87;;;15.63;;
27796;SDS011;15177;50.844;4.412;2023-04-06T07:07:38;26.37;;;15.30;;
27796;SDS011;15177;50.844;4.412;2023-04-06T07:10:04;25.43;;;14.47;;
27796;SDS011;15177;50.844;4.412;2023-04-06T07:12:31;26.23;;;15.23;;
27796;SDS011;15177;50.844;4.412;2023-04-06T07:14:57;28.47;;;13.73;;
27796;SDS011;15177;50.844;4.412;2023-04-06T07:17:23;31.03;;;14.60;;
27796;SDS011;15177;50.844;4.412;2023-04-06T07:19:48;26.93;;;15.30;;
27796;SDS011;15177;50.844;4.412;2023-04-06T07:22:14;24.73;;;14.37;;
27796;SDS011;15177;50.844;4.412;2023-04-06T07:24:40;26.80;;;14.50;;
27796;SDS011;15177;50.844;4.412;2023-04-06T07:27:05;29.73;;;14.43;;
27796;SDS011;15177;50.844;4.412;2023-04-06T07:29:32;25.50;;;13.43;;
27796;SDS011;15177;50.844;4.412;2023-04-06T07:31:58;25.70;;;12.77;;
27796;SDS011;15177;50.844;4.412;2023-04-06T07:34:23;25.33;;;13.00;;
27796;SDS011;15177;50.844;4.412;2023-04-06T07:36:49;23.80;;;12.20;;
27796;SDS011;15177;50.844;4.412;2023-04-06T07:39:15;21.70;;;12.57;;
27796;SDS011;15177;50.844;4.412;2023-04-06T07:41:40;29.40;;;12.23;;
27796;SDS011;15177;50.844;4.412;2023-04-06T07:44:06;24.40;;;11.97;;
27796;SDS011;15177;50.844;4.412;2023-04-06T07:46:32;23.80;;;12.27;;
27796;SDS011;15177;50.844;4.412;2023-04-06T07:48:59;22.77;;;11.90;;
27796;SDS011;15177;50.844;4.412;2023-04-06T07:51:25;20.03;;;12.47;;
27796;SDS011;15177;50.844;4.412;2023-04-06T07:53:51;24.77;;;11.30;;
27796;SDS011;15177;50.844;4.412;2023-04-06T07:56:17;19.90;;;10.63;;
27796;SDS011;15177;50.844;4.412;2023-04-06T07:58:43;22.07;;;11.07;;
27796;SDS011;15177;50.844;4.412;2023-04-06T08:01:09;21.63;;;11.13;;
27796;SDS011;15177;50.844;4.412;2023-04-06T08:03:35;22.90;;;10.33;;
27796;SDS011;15177;50.844;4.412;2023-04-06T08:06:01;19.80;;;10.37;;
27796;SDS011;15177;50.844;4.412;2023-04-06T08:08:28;22.20;;;11.43;;
27796;SDS011;15177;50.844;4.412;2023-04-06T08:10:55;23.40;;;11.07;;
27796;SDS011;15177;50.844;4.412;2023-04-06T08:13:21;23.00;;;11.50;;
27796;SDS011;15177;50.844;4.412;2023-04-06T08:15:47;21.07;;;9.93;;
27796;SDS011;15177;50.844;4.412;2023-04-06T08:18:12;23.43;;;10.97;;
27796;SDS011;15177;50.844;4.412;2023-04-06T08:20:39;21.67;;;11.53;;
27796;SDS011;15177;50.844;4.412;2023-04-06T08:23:05;19.97;;;11.00;;
27796;SDS011;15177;50.844;4.412;2023-04-06T08:25:34;19.83;;;10.70;;
27796;SDS011;15177;50.844;4.412;2023-04-06T08:28:03;21.43;;;12.00;;
27796;SDS011;15177;50.844;4.412;2023-04-06T08:30:29;23.77;;;10.17;;
27796;SDS011;15177;50.844;4.412;2023-04-06T08:32:55;20.73;;;10.67;;
27796;SDS011;15177;50.844;4.412;2023-04-06T08:35:21;20.17;;;11.23;;
27796;SDS011;15177;50.844;4.412;2023-04-06T08:37:46;22.37;;;11.53;;
27796;SDS011;15177;50.844;4.412;2023-04-06T08:40:12;23.03;;;11.10;;
27796;SDS011;15177;50.844;4.412;2023-04-06T08:42:39;22.00;;;11.43;;
27796;SDS011;15177;50.844;4.412;2023-04-06T08:45:09;19.57;;;11.30;;
27796;SDS011;15177;50.844;4.412;2023-04-06T08:47:35;19.37;;;10.70;;
27796;SDS011;15177;50.844;4.412;2023-04-06T08:50:04;20.77;;;10.33;;
27796;SDS011;15177;50.844;4.412;2023-04-06T08:52:31;23.03;;;12.00;;
27796;SDS011;15177;50.844;4.412;2023-04-06T08:54:58;23.93;;;12.00;;
27796;SDS011;15177;50.844;4.412;2023-04-06T08:57:24;19.37;;;9.67;;
27796;SDS011;15177;50.844;4.412;2023-04-06T08:59:51;23.27;;;11.60;;
27796;SDS011;15177;50.844;4.412;2023-04-06T09:02:18;18.80;;;11.20;;
27796;SDS011;15177;50.844;4.412;2023-04-06T09:04:52;22.07;;;10.93;;
27796;SDS011;15177;50.844;4.412;2023-04-06T09:07:19;19.73;;;11.37;;
27796;SDS011;15177;50.844;4.412;2023-04-06T09:09:45;20.37;;;11.53;;
27796;SDS011;15177;50.844;4.412;2023-04-06T09:12:30;21.17;;;11.43;;
27796;SDS011;15177;50.844;4.412;2023-04-06T09:14:57;18.17;;;11.00;;
27796;SDS011;15177;50.844;4.412;2023-04-06T09:17:24;20.67;;;11.47;;
27796;SDS011;15177;50.844;4.412;2023-04-06T09:19:53;18.33;;;10.17;;
27796;SDS011;15177;50.844;4.412;2023-04-06T09:22:20;22.23;;;10.40;;
27796;SDS011;15177;50.844;4.412;2023-04-06T09:24:47;19.03;;;11.00;;
27796;SDS011;15177;50.844;4.412;2023-04-06T09:27:16;21.23;;;11.20;;
27796;SDS011;15177;50.844;4.412;2023-04-06T09:29:42;18.57;;;9.93;;
27796;SDS011;15177;50.844;4.412;2023-04-06T09:32:09;29.93;;;11.57;;
27796;SDS011;15177;50.844;4.412;2023-04-06T09:34:39;17.87;;;10.57;;
27796;SDS011;15177;50.844;4.412;2023-04-06T09:37:17;17.77;;;11.30;;
27796;SDS011;15177;50.844;4.412;2023-04-06T09:39:44;21.47;;;10.03;;
27796;SDS011;15177;50.844;4.412;2023-04-06T09:42:26;19.70;;;10.87;;
27796;SDS011;15177;50.844;4.412;2023-04-06T09:44:52;18.97;;;10.27;;
27796;SDS011;15177;50.844;4.412;2023-04-06T09:47:17;18.93;;;8.90;;
27796;SDS011;15177;50.844;4.412;2023-04-06T09:49:44;16.30;;;9.43;;
27796;SDS011;15177;50.844;4.412;2023-04-06T09:52:12;15.07;;;8.97;;
27796;SDS011;15177;50.844;4.412;2023-04-06T09:54:39;16.67;;;9.80;;
27796;SDS011;15177;50.844;4.412;2023-04-06T09:59:55;16.27;;;10.00;;
27796;SDS011;15177;50.844;4.412;2023-04-06T10:05:12;18.97;;;10.03;;
27796;SDS011;15177;50.844;4.412;2023-04-06T10:07:54;21.17;;;10.17;;
27796;SDS011;15177;50.844;4.412;2023-04-06T10:10:24;21.43;;;10.87;;
27796;SDS011;15177;50.844;4.412;2023-04-06T10:12:50;17.37;;;9.80;;
27796;SDS011;15177;50.844;4.412;2023-04-06T10:15:16;19.60;;;10.60;;
27796;SDS011;15177;50.844;4.412;2023-04-06T10:17:42;18.67;;;10.03;;
27796;SDS011;15177;50.844;4.412;2023-04-06T10:20:10;20.03;;;10.27;;
27796;SDS011;15177;50.844;4.412;2023-04-06T10:25:17;18.67;;;11.50;;
27796;SDS011;15177;50.844;4.412;2023-04-06T10:28:01;19.20;;;10.53;;
27796;SDS011;15177;50.844;4.412;2023-04-06T10:30:34;20.83;;;11.33;;
27796;SDS011;15177;50.844;4.412;2023-04-06T10:33:13;19.80;;;11.47;;
27796;SDS011;15177;50.844;4.412;2023-04-06T10:35:39;19.97;;;11.10;;
27796;SDS011;15177;50.844;4.412;2023-04-06T10:38:05;18.37;;;12.03;;
27796;SDS011;15177;50.844;4.412;2023-04-06T10:40:32;21.03;;;12.17;;
27796;SDS011;15177;50.844;4.412;2023-04-06T10:43:12;20.40;;;10.57;;
27796;SDS011;15177;50.844;4.412;2023-04-06T10:45:43;18.40;;;10.90;;
27796;SDS011;15177;50.844;4.412;2023-04-06T10:48:16;22.37;;;11.93;;
27796;SDS011;15177;50.844;4.412;2023-04-06T10:50:43;22.90;;;12.50;;
27796;SDS011;15177;50.844;4.412;2023-04-06T10:53:20;19.57;;;11.13;;
27796;SDS011;15177;50.844;4.412;2023-04-06T10:55:46;16.90;;;11.47;;
27796;SDS011;15177;50.844;4.412;2023-04-06T10:58:14;21.10;;;12.20;;
27796;SDS011;15177;50.844;4.412;2023-04-06T11:00:48;22.60;;;12.37;;
27796;SDS011;15177;50.844;4.412;2023-04-06T11:03:15;22.40;;;11.87;;
27796;SDS011;15177;50.844;4.412;2023-04-06T11:05:44;19.63;;;11.40;;
27796;SDS011;15177;50.844;4.412;2023-04-06T11:08:21;20.93;;;11.87;;
27796;SDS011;15177;50.844;4.412;2023-04-06T11:10:47;19.47;;;11.57;;
27796;SDS011;15177;50.844;4.412;2023-04-06T11:13:14;18.63;;;11.23;;
27796;SDS011;15177;50.844;4.412;2023-04-06T11:15:40;21.57;;;11.93;;
27796;SDS011;15177;50.844;4.412;2023-04-06T11:18:05;15.97;;;10.30;;
27796;SDS011;15177;50.844;4.412;2023-04-06T11:20:31;19.30;;;10.80;;
27796;SDS011;15177;50.844;4.412;2023-04-06T11:22:57;22.67;;;10.97;;
27796;SDS011;15177;50.844;4.412;2023-04-06T11:25:24;20.53;;;11.23;;
27796;SDS011;15177;50.844;4.412;2023-04-06T11:27:51;17.23;;;10.27;;
27796;SDS011;15177;50.844;4.412;2023-04-06T11:30:17;16.83;;;10.30;;
27796;SDS011;15177;50.844;4.412;2023-04-06T11:32:44;18.37;;;10.90;;
27796;SDS011;15177;50.844;4.412;2023-04-06T11:35:11;17.83;;;10.80;;
27796;SDS011;15177;50.844;4.412;2023-04-06T11:37:50;21.20;;;11.33;;
27796;SDS011;15177;50.844;4.412;2023-04-06T11:40:20;15.70;;;10.47;;
27796;SDS011;15177;50.844;4.412;2023-04-06T11:42:53;20.93;;;11.10;;
27796;SDS011;15177;50.844;4.412;2023-04-06T11:45:20;17.33;;;10.73;;
27796;SDS011;15177;50.844;4.412;2023-04-06T11:47:54;19.00;;;11.87;;
27796;SDS011;15177;50.844;4.412;2023-04-06T11:50:22;18.93;;;10.87;;
27796;SDS011;15177;50.844;4.412;2023-04-06T11:52:57;17.63;;;10.10;;
27796;SDS011;15177;50.844;4.412;2023-04-06T11:55:25;17.13;;;9.80;;
27796;SDS011;15177;50.844;4.412;2023-04-06T11:57:51;21.20;;;11.40;;
27796;SDS011;15177;50.844;4.412;2023-04-06T12:00:17;19.40;;;11.23;;
27796;SDS011;15177;50.844;4.412;2023-04-06T12:02:46;18.10;;;11.70;;
27796;SDS011;15177;50.844;4.412;2023-04-06T12:05:13;24.90;;;11.17;;
27796;SDS011;15177;50.844;4.412;2023-04-06T12:07:38;17.67;;;11.00;;
27796;SDS011;15177;50.844;4.412;2023-04-06T12:10:04;19.67;;;11.90;;
27796;SDS011;15177;50.844;4.412;2023-04-06T12:12:30;22.93;;;11.90;;
27796;SDS011;15177;50.844;4.412;2023-04-06T12:14:56;20.97;;;11.63;;
27796;SDS011;15177;50.844;4.412;2023-04-06T12:17:22;18.30;;;11.77;;
27796;SDS011;15177;50.844;4.412;2023-04-06T12:19:48;18.90;;;10.77;;
27796;SDS011;15177;50.844;4.412;2023-04-06T12:22:14;17.30;;;12.13;;
27796;SDS011;15177;50.844;4.412;2023-04-06T12:24:40;18.67;;;11.87;;
27796;SDS011;15177;50.844;4.412;2023-04-06T12:27:06;18.37;;;11.17;;
27796;SDS011;15177;50.844;4.412;2023-04-06T12:29:31;16.57;;;11.23;;
27796;SDS011;15177;50.844;4.412;2023-04-06T12:31:57;19.23;;;12.23;;
27796;SDS011;15177;50.844;4.412;2023-04-06T12:34:23;19.23;;;11.77;;
27796;SDS011;15177;50.844;4.412;2023-04-06T12:36:49;20.73;;;12.77;;
27796;SDS011;15177;50.844;4.412;2023-04-06T12:39:15;13.97;;;9.87;;
27796;SDS011;15177;50.844;4.412;2023-04-06T12:41:41;19.27;;;11.40;;
27796;SDS011;15177;50.844;4.412;2023-04-06T12:44:07;19.10;;;11.67;;
27796;SDS011;15177;50.844;4.412;2023-04-06T12:46:33;18.73;;;12.00;;
27796;SDS011;15177;50.844;4.412;2023-04-06T12:48:58;19.90;;;12.37;;
27796;SDS011;15177;50.844;4.412;2023-04-06T12:51:26;17.97;;;12.23;;
27796;SDS011;15177;50.844;4.412;2023-04-06T12:53:53;17.20;;;11.07;;
27796;SDS011;15177;50.844;4.412;2023-04-06T12:56:19;23.27;;;13.00;;
27796;SDS011;15177;50.844;4.412;2023-04-06T12:58:46;21.83;;;12.03;;
27796;SDS011;15177;50.844;4.412;2023-04-06T13:01:12;20.27;;;12.37;;
27796;SDS011;15177;50.844;4.412;2023-04-06T13:03:38;20.27;;;13.67;;
27796;SDS011;15177;50.844;4.412;2023-04-06T13:06:04;20.17;;;13.13;;
27796;SDS011;15177;50.844;4.412;2023-04-06T13:08:30;21.40;;;12.93;;
27796;SDS011;15177;50.844;4.412;2023-04-06T13:10:55;20.17;;;12.50;;
27796;SDS011;15177;50.844;4.412;2023-04-06T13:13:28;24.87;;;14.10;;
27796;SDS011;15177;50.844;4.412;2023-04-06T13:15:58;21.43;;;12.47;;
27796;SDS011;15177;50.844;4.412;2023-04-06T13:18:26;19.83;;;12.83;;
27796;SDS011;15177;50.844;4.412;2023-04-06T13:20:52;19.90;;;12.90;;
27796;SDS011;15177;50.844;4.412;2023-04-06T13:23:17;22.20;;;13.37;;
27796;SDS011;15177;50.844;4.412;2023-04-06T13:25:43;25.50;;;12.93;;
27796;SDS011;15177;50.844;4.412;2023-04-06T13:28:09;22.50;;;13.93;;
27796;SDS011;15177;50.844;4.412;2023-04-06T13:30:35;20.07;;;14.23;;
27796;SDS011;15177;50.844;4.412;2023-04-06T13:33:01;22.27;;;12.90;;
27796;SDS011;15177;50.844;4.412;2023-04-06T13:35:27;24.33;;;13.90;;
27796;SDS011;15177;50.844;4.412;2023-04-06T13:37:53;25.13;;;14.20;;
27796;SDS011;15177;50.844;4.412;2023-04-06T13:40:18;21.13;;;13.20;;
27796;SDS011;15177;50.844;4.412;2023-04-06T13:42:45;22.33;;;14.20;;
27796;SDS011;15177;50.844;4.412;2023-04-06T13:45:12;23.77;;;14.67;;
27796;SDS011;15177;50.844;4.412;2023-04-06T13:47:37;26.27;;;13.93;;
27796;SDS011;15177;50.844;4.412;2023-04-06T13:50:03;22.43;;;14.27;;
27796;SDS011;15177;50.844;4.412;2023-04-06T13:52:29;22.83;;;13.67;;
27796;SDS011;15177;50.844;4.412;2023-04-06T13:54:55;20.50;;;13.30;;
27796;SDS011;15177;50.844;4.412;2023-04-06T13:57:21;21.80;;;13.00;;
27796;SDS011;15177;50.844;4.412;2023-04-06T13:59:47;18.53;;;12.70;;
27796;SDS011;15177;50.844;4.412;2023-04-06T14:02:14;20.20;;;12.67;;
27796;SDS011;15177;50.844;4.412;2023-04-06T14:04:40;22.90;;;13.83;;
27796;SDS011;15177;50.844;4.412;2023-04-06T14:07:05;24.83;;;14.03;;
27796;SDS011;15177;50.844;4.412;2023-04-06T14:09:32;23.17;;;13.80;;
27796;SDS011;15177;50.844;4.412;2023-04-06T14:11:58;22.00;;;14.23;;
27796;SDS011;15177;50.844;4.412;2023-04-06T14:14:24;19.60;;;13.13;;
27796;SDS011;15177;50.844;4.412;2023-04-06T14:16:50;21.43;;;13.77;;
27796;SDS011;15177;50.844;4.412;2023-04-06T14:19:17;22.93;;;14.60;;
27796;SDS011;15177;50.844;4.412;2023-04-06T14:21:45;22.23;;;14.67;;
27796;SDS011;15177;50.844;4.412;2023-04-06T14:24:12;23.77;;;13.07;;
27796;SDS011;15177;50.844;4.412;2023-04-06T14:26:38;23.67;;;14.57;;